createdAt,value
2018-04-15T00:00:40.495Z,81.50
2018-04-15T00:03:08.157Z,76.80
2018-04-15T00:05:35.792Z,73.87
2018-04-15T00:08:03.657Z,78.47
2018-04-15T00:10:31.296Z,64.37
2018-04-15T00:12:59.701Z,72.10
2018-04-15T00:15:27.386Z,75.13
2018-04-15T00:17:55.025Z,70.77
2018-04-15T00:20:22.661Z,64.77
2018-04-15T00:22:51.275Z,51.40
2018-04-15T00:25:19.058Z,48.60
2018-04-15T00:27:46.713Z,52.63
2018-04-15T00:30:14.534Z,52.00
2018-04-15T00:32:42.949Z,54.73
2018-04-15T00:35:10.733Z,50.30
2018-04-15T00:37:38.593Z,60.87
2018-04-15T00:40:06.242Z,59.83
2018-04-15T00:42:33.877Z,77.07
2018-04-15T00:45:01.983Z,74.40
2018-04-15T00:47:29.860Z,85.73
2018-04-15T00:49:57.511Z,69.93
2018-04-15T00:52:25.364Z,70.03
2018-04-15T00:54:53.014Z,64.80
2018-04-15T00:57:20.649Z,68.23
2018-04-15T00:59:49.291Z,67.93
2018-04-15T01:02:17.156Z,61.60
2018-04-15T01:04:44.801Z,69.03
2018-04-15T01:07:12.679Z,74.40
2018-04-15T01:09:40.338Z,50.17
2018-04-15T01:12:07.980Z,59.03
2018-04-15T01:14:36.048Z,50.17
2018-04-15T01:17:04.288Z,59.70
2018-04-15T01:19:31.924Z,58.53
2018-04-15T01:21:59.869Z,55.17
2018-04-15T01:24:27.514Z,48.63
2018-04-15T01:26:55.154Z,59.00
2018-04-15T01:29:23.840Z,60.00
2018-04-15T01:31:52.256Z,52.57
2018-04-15T01:34:19.894Z,56.40
2018-04-15T01:36:47.906Z,53.33
2018-04-15T01:39:15.541Z,54.13
2018-04-15T01:41:43.180Z,49.00
2018-04-15T01:44:11.793Z,60.43
2018-04-15T01:46:39.433Z,59.53
2018-04-15T01:49:07.230Z,59.03
2018-04-15T01:51:35.302Z,57.17
2018-04-15T01:54:02.959Z,64.40
2018-04-15T01:56:30.602Z,59.23
2018-04-15T01:58:58.503Z,55.90
2018-04-15T02:01:26.384Z,64.97
2018-04-15T02:03:55.153Z,64.27
2018-04-15T02:06:23.096Z,72.90
2018-04-15T02:08:50.729Z,65.87
2018-04-15T02:11:19.128Z,64.17
2018-04-15T02:13:47.022Z,58.03
2018-04-15T02:16:14.788Z,64.07
2018-04-15T02:18:42.437Z,67.23
2018-04-15T02:21:10.316Z,62.97
2018-04-15T02:23:37.965Z,74.20
2018-04-15T02:26:05.605Z,65.20
2018-04-15T02:28:34.055Z,72.83
2018-04-15T02:31:01.888Z,64.23
2018-04-15T02:33:29.541Z,67.60
2018-04-15T02:35:57.244Z,67.87
2018-04-15T02:38:24.891Z,59.87
2018-04-15T02:40:52.546Z,77.30
2018-04-15T02:43:21.209Z,58.97
2018-04-15T02:45:48.846Z,64.20
2018-04-15T02:48:16.773Z,67.33
2018-04-15T02:50:44.471Z,62.53
2018-04-15T02:53:13.094Z,64.10
2018-04-15T02:55:41.354Z,65.03
2018-04-15T02:58:09.217Z,56.97
2018-04-15T03:00:37.000Z,59.67
2018-04-15T03:03:04.874Z,53.53
2018-04-15T03:05:32.581Z,58.50
2018-04-15T03:08:00.987Z,57.27
2018-04-15T03:10:28.781Z,47.77
2018-04-15T03:12:56.490Z,44.47
2018-04-15T03:15:24.896Z,44.13
2018-04-15T03:17:52.533Z,41.27
2018-04-15T03:20:20.989Z,44.43
2018-04-15T03:22:48.721Z,40.80
2018-04-15T03:25:16.370Z,40.33
2018-04-15T03:27:44.229Z,42.30
2018-04-15T03:30:11.870Z,39.60
2018-04-15T03:32:40.276Z,43.87
2018-04-15T03:35:08.184Z,51.60
2018-04-15T03:37:35.828Z,35.97
2018-04-15T03:40:03.684Z,47.60
2018-04-15T03:42:31.755Z,45.97
2018-04-15T03:44:59.413Z,45.40
2018-04-15T03:47:27.057Z,47.13
2018-04-15T03:49:54.881Z,44.93
2018-04-15T03:52:22.524Z,43.23
2018-04-15T03:54:50.169Z,48.93
2018-04-15T03:57:18.325Z,58.67
2018-04-15T03:59:46.104Z,57.00
2018-04-15T04:02:13.781Z,56.97
2018-04-15T04:04:41.473Z,56.10
2018-04-15T04:07:10.011Z,59.67
2018-04-15T04:09:37.664Z,66.57
2018-04-15T04:12:05.539Z,65.53
2018-04-15T04:14:33.184Z,70.70
2018-04-15T04:17:01.292Z,59.43
2018-04-15T04:19:40.922Z,59.07
2018-04-15T04:22:20.592Z,62.83
2018-04-15T04:25:15.157Z,65.43
2018-04-15T04:27:43.022Z,66.17
2018-04-15T04:30:10.883Z,62.97
2018-04-15T04:32:38.827Z,61.60
2018-04-15T04:35:06.469Z,67.53
2018-04-15T04:37:34.887Z,55.60
2018-04-15T04:40:02.753Z,86.40
2018-04-15T04:42:30.529Z,65.70
2018-04-15T04:44:58.195Z,61.87
2018-04-15T04:47:25.924Z,60.87
2018-04-15T04:49:53.572Z,107.20
2018-04-15T04:52:21.983Z,88.90
2018-04-15T04:54:49.845Z,72.80
2018-04-15T04:57:17.482Z,59.47
2018-04-15T04:59:45.121Z,61.67
2018-04-15T05:02:13.758Z,63.93
2018-04-15T05:04:41.404Z,52.73
2018-04-15T05:07:09.042Z,54.37
2018-04-15T05:09:37.492Z,63.20
2018-04-15T05:12:05.133Z,63.73
2018-04-15T05:14:33.000Z,64.40
2018-04-15T05:17:00.704Z,59.20
2018-04-15T05:19:29.113Z,64.63
2018-04-15T05:21:56.748Z,54.77
2018-04-15T05:24:25.291Z,54.40
2018-04-15T05:26:53.152Z,51.10
2018-04-15T05:29:20.800Z,50.30
2018-04-15T05:31:48.674Z,49.87
2018-04-15T05:34:16.340Z,44.53
2018-04-15T05:36:44.003Z,43.00
2018-04-15T05:39:12.076Z,47.47
2018-04-15T05:41:39.737Z,42.03
2018-04-15T05:44:07.387Z,40.57
2018-04-15T05:46:35.675Z,40.30
2018-04-15T05:49:03.328Z,37.40
2018-04-15T05:51:30.979Z,34.50
2018-04-15T05:53:58.676Z,43.33
2018-04-15T05:56:26.465Z,37.93
2018-04-15T05:58:54.881Z,35.70
2018-04-15T06:01:22.960Z,36.20
2018-04-15T06:03:50.608Z,39.30
2018-04-15T06:06:18.502Z,35.43
2018-04-15T06:08:46.349Z,42.23
2018-04-15T06:11:14.000Z,36.50
2018-04-15T06:13:41.650Z,43.73
2018-04-15T06:16:10.475Z,33.87
2018-04-15T06:18:38.125Z,33.60
2018-04-15T06:21:05.915Z,30.83
2018-04-15T06:23:33.757Z,34.90
2018-04-15T06:26:02.201Z,35.43
2018-04-15T06:28:30.616Z,39.00
2018-04-15T06:30:58.485Z,35.30
2018-04-15T06:33:26.266Z,35.20
2018-04-15T06:35:54.571Z,34.23
2018-04-15T06:38:22.325Z,34.97
2018-04-15T06:40:50.174Z,39.63
2018-04-15T06:43:18.041Z,41.33
2018-04-15T06:45:46.316Z,43.33
2018-04-15T06:48:13.977Z,36.20
2018-04-15T06:50:41.786Z,38.93
2018-04-15T06:53:10.616Z,42.60
2018-04-15T06:55:38.493Z,38.93
2018-04-15T06:58:06.155Z,39.13
2018-04-15T07:00:34.218Z,110.13
2018-04-15T07:03:01.995Z,43.67
2018-04-15T07:12:15.471Z,42.33
2018-04-15T07:14:43.250Z,37.90
2018-04-15T07:17:10.914Z,39.73
2018-04-15T07:19:39.011Z,45.67
2018-04-15T07:22:07.490Z,44.93
2018-04-15T07:24:35.976Z,40.00
2018-04-15T07:27:04.520Z,43.00
2018-04-15T07:29:32.979Z,42.10
2018-04-15T07:32:00.625Z,44.00
2018-04-15T07:34:28.467Z,48.60
2018-04-15T07:36:56.890Z,44.40
2018-04-15T07:39:24.873Z,45.20
2018-04-15T07:41:56.167Z,38.77
2018-04-15T07:44:23.821Z,53.30
2018-04-15T07:46:52.238Z,43.57
2018-04-15T07:49:19.949Z,41.30
2018-04-15T07:51:53.158Z,41.83
2018-04-15T07:54:21.778Z,39.80
2018-04-15T07:56:51.266Z,36.23
2018-04-15T07:59:18.928Z,33.33
2018-04-15T08:01:46.823Z,33.87
2018-04-15T08:04:14.475Z,32.60
2018-04-15T08:06:42.136Z,30.93
2018-04-15T08:09:10.009Z,38.23
2018-04-15T08:11:37.718Z,37.13
2018-04-15T08:14:05.388Z,34.80
2018-04-15T08:16:34.018Z,34.77
2018-04-15T08:19:01.734Z,33.13
2018-04-15T08:21:30.158Z,36.67
2018-04-15T08:23:59.094Z,37.97
2018-04-15T08:26:26.757Z,26.83
2018-04-15T08:28:55.230Z,35.27
2018-04-15T08:31:22.941Z,29.87
2018-04-15T08:33:50.598Z,43.30
2018-04-15T08:36:18.251Z,38.40
2018-04-15T08:38:46.007Z,37.87
2018-04-15T08:41:13.663Z,32.97
2018-04-15T08:43:41.390Z,36.03
2018-04-15T08:46:10.096Z,32.67
2018-04-15T08:48:37.770Z,41.90
2018-04-15T08:51:05.413Z,34.37
2018-04-15T08:53:34.045Z,36.50
2018-04-15T08:56:01.714Z,32.63
2018-04-15T08:58:29.625Z,38.17
2018-04-15T09:00:58.511Z,40.10
2018-04-15T09:03:26.991Z,38.63
2018-04-15T09:05:55.474Z,38.50
2018-04-15T09:08:24.008Z,42.40
2018-04-15T09:10:52.428Z,46.17
2018-04-15T09:13:20.853Z,38.00
2018-04-15T09:15:48.862Z,38.40
2018-04-15T09:18:17.343Z,65.43
2018-04-15T09:20:45.034Z,39.33
2018-04-15T09:23:12.862Z,42.17
2018-04-15T09:25:41.350Z,31.03
2018-04-15T09:28:09.831Z,35.80
2018-04-15T09:30:44.098Z,46.83
2018-04-15T09:33:11.755Z,36.83
2018-04-15T09:35:41.082Z,32.80
2018-04-15T09:38:08.890Z,38.90
2018-04-15T09:40:37.309Z,31.80
2018-04-15T09:43:04.970Z,34.47
2018-04-15T09:45:32.761Z,36.03
2018-04-15T09:48:00.414Z,32.53
2018-04-15T09:50:28.123Z,32.73
2018-04-15T09:52:55.942Z,29.33
2018-04-15T09:55:23.646Z,51.23
2018-04-15T09:57:51.309Z,28.27
2018-04-15T10:00:19.037Z,28.97
2018-04-15T10:02:46.686Z,28.67
2018-04-15T10:05:14.386Z,28.00
2018-04-15T10:07:42.942Z,28.60
2018-04-15T10:10:10.591Z,26.73
2018-04-15T10:12:38.291Z,31.33
2018-04-15T10:15:06.753Z,38.20
2018-04-15T10:17:35.162Z,27.57
2018-04-15T10:20:02.814Z,23.10
2018-04-15T10:22:30.574Z,30.07
2018-04-15T10:24:58.281Z,25.40
2018-04-15T10:27:25.962Z,25.00
2018-04-15T10:29:53.758Z,26.87
2018-04-15T10:32:21.421Z,28.33
2018-04-15T10:34:49.074Z,25.70
2018-04-15T10:37:17.689Z,25.40
2018-04-15T10:39:45.410Z,103.37
2018-04-15T10:42:13.839Z,29.30
2018-04-15T10:44:41.707Z,29.80
2018-04-15T10:47:09.359Z,21.73
2018-04-15T10:49:37.010Z,22.57
2018-04-15T10:52:04.783Z,22.53
2018-04-15T10:54:32.530Z,29.23
2018-04-15T10:57:01.229Z,29.17
2018-04-15T10:59:28.930Z,23.40
2018-04-15T11:01:56.622Z,26.23
2018-04-15T11:04:24.281Z,21.47
2018-04-15T11:06:52.027Z,21.50
2018-04-15T11:09:21.067Z,24.93
2018-04-15T11:11:48.713Z,31.17
2018-04-15T11:14:16.541Z,25.57
2018-04-15T11:16:44.949Z,28.20
2018-04-15T11:19:12.599Z,28.33
2018-04-15T11:21:40.318Z,32.53
2018-04-15T11:24:08.023Z,28.23
2018-04-15T11:26:36.523Z,42.67
2018-04-15T11:29:05.061Z,27.67
2018-04-15T11:31:32.791Z,31.90
2018-04-15T11:34:00.495Z,33.40
2018-04-15T11:36:29.179Z,30.23
2018-04-15T11:38:57.678Z,27.57
2018-04-15T11:41:26.350Z,31.67
2018-04-15T11:43:54.820Z,37.27
2018-04-15T11:46:22.474Z,30.70
2018-04-15T11:48:50.174Z,29.77
2018-04-15T11:51:18.167Z,33.50
2018-04-15T11:53:45.833Z,45.77
2018-04-15T11:56:13.507Z,31.37
2018-04-15T11:58:41.217Z,31.30
2018-04-15T12:01:09.642Z,36.63
2018-04-15T12:03:37.311Z,33.67
2018-04-15T12:06:05.037Z,35.00
2018-04-15T12:08:32.686Z,35.67
2018-04-15T12:11:00.370Z,35.03
2018-04-15T12:13:28.506Z,35.03
2018-04-15T12:15:56.936Z,31.67
2018-04-15T12:18:24.659Z,28.13
2018-04-15T12:20:52.378Z,32.63
2018-04-15T12:23:20.884Z,29.00
2018-04-15T12:25:49.693Z,29.87
2018-04-15T12:28:18.558Z,28.57
2018-04-15T12:30:46.209Z,26.53
2018-04-15T12:33:13.857Z,33.47
2018-04-15T12:35:41.895Z,29.20
2018-04-15T12:38:09.534Z,44.00
2018-04-15T12:40:37.945Z,26.77
2018-04-15T12:43:05.701Z,30.30
2018-04-15T12:45:33.356Z,32.80
2018-04-15T12:48:01.064Z,28.60
2018-04-15T12:50:29.062Z,31.37
2018-04-15T12:52:57.546Z,28.43
2018-04-15T12:55:25.961Z,24.67
2018-04-15T12:57:53.844Z,16.07
2018-04-15T13:00:21.492Z,21.37
2018-04-15T13:02:49.373Z,23.40
2018-04-15T13:05:17.229Z,26.60
2018-04-15T13:07:44.870Z,25.37
2018-04-15T13:10:12.576Z,21.47
2018-04-15T13:12:40.616Z,24.23
2018-04-15T13:15:08.260Z,22.60
2018-04-15T13:17:36.700Z,33.50
2018-04-15T13:20:05.345Z,20.13
2018-04-15T13:22:33.131Z,19.43
2018-04-15T13:25:00.783Z,25.43
2018-04-15T13:27:28.640Z,22.60
2018-04-15T13:29:56.429Z,23.57
2018-04-15T13:32:24.089Z,28.10
2018-04-15T13:34:51.894Z,25.63
2018-04-15T13:37:20.527Z,24.50
2018-04-15T13:39:48.192Z,19.67
2018-04-15T13:42:16.585Z,19.93
2018-04-15T13:44:44.239Z,25.40
2018-04-15T13:47:11.891Z,72.37
2018-04-15T13:49:39.863Z,24.23
2018-04-15T13:52:08.757Z,26.23
2018-04-15T13:54:36.621Z,20.57
2018-04-15T13:57:04.572Z,51.30
2018-04-15T13:59:32.217Z,23.67
2018-04-15T14:01:59.862Z,24.30
2018-04-15T14:04:28.324Z,26.43
2018-04-15T14:06:58.513Z,21.90
2018-04-15T14:09:26.759Z,22.00
2018-04-15T14:11:54.868Z,18.90
2018-04-15T14:14:23.331Z,21.80
2018-04-15T14:16:50.971Z,21.03
2018-04-15T14:19:18.870Z,25.43
2018-04-15T14:21:46.549Z,22.80
2018-04-15T14:24:14.193Z,20.83
2018-04-15T14:26:41.992Z,26.80
2018-04-15T14:29:09.633Z,20.00
2018-04-15T14:31:37.286Z,24.33
2018-04-15T14:34:05.146Z,52.63
2018-04-15T14:36:32.817Z,20.93
2018-04-15T14:39:00.469Z,26.17
2018-04-15T14:41:28.439Z,26.83
2018-04-15T14:43:56.093Z,24.23
2018-04-15T14:46:23.740Z,23.53
2018-04-15T14:48:51.742Z,31.93
2018-04-15T14:51:19.382Z,25.50
2018-04-15T14:53:47.051Z,28.23
2018-04-15T14:56:14.911Z,28.67
2018-04-15T14:58:42.688Z,52.47
2018-04-15T15:01:10.344Z,29.73
2018-04-15T15:03:38.414Z,26.07
2018-04-15T15:06:06.074Z,27.83
2018-04-15T15:08:33.947Z,24.93
2018-04-15T15:11:01.905Z,33.10
2018-04-15T15:13:29.600Z,21.20
2018-04-15T15:15:57.443Z,32.07
2018-04-15T15:18:25.129Z,22.30
2018-04-15T15:20:53.685Z,25.97
2018-04-15T15:23:21.333Z,32.73
2018-04-15T15:25:49.033Z,56.50
2018-04-15T15:28:17.617Z,70.83
2018-04-15T15:30:46.064Z,42.20
2018-04-15T15:33:14.577Z,50.17
2018-04-15T15:35:42.223Z,40.53
2018-04-15T15:38:09.985Z,37.73
2018-04-15T15:40:38.041Z,38.03
2018-04-15T15:43:05.920Z,38.37
2018-04-15T15:45:33.573Z,37.63
2018-04-15T15:48:01.261Z,45.87
2018-04-15T15:50:29.114Z,38.67
2018-04-15T15:52:56.784Z,40.00
2018-04-15T15:55:24.625Z,46.97
2018-04-15T15:57:52.347Z,44.20
2018-04-15T16:00:20.798Z,51.43
2018-04-15T16:02:48.648Z,50.13
2018-04-15T16:05:16.411Z,45.23
2018-04-15T16:07:44.273Z,50.90
2018-04-15T16:10:12.029Z,53.57
2018-04-15T16:12:39.657Z,62.77
2018-04-15T16:15:08.289Z,50.23
2018-04-15T16:17:35.997Z,64.70
2018-04-15T16:20:04.630Z,60.70
2018-04-15T16:22:32.284Z,97.27
2018-04-15T16:24:59.973Z,59.97
2018-04-15T16:27:27.616Z,69.60
2018-04-15T16:29:55.257Z,80.60
2018-04-15T16:32:23.548Z,70.23
2018-04-15T16:34:51.266Z,69.53
2018-04-15T16:37:19.901Z,92.27
2018-04-15T16:39:48.568Z,72.23
2018-04-15T16:42:16.209Z,71.10
2018-04-15T16:44:44.616Z,68.80
2018-04-15T16:47:12.478Z,67.23
2018-04-15T16:49:40.157Z,70.10
2018-04-15T16:52:07.926Z,76.73
2018-04-15T16:54:35.785Z,96.70
2018-04-15T16:57:03.659Z,65.67
2018-04-15T16:59:31.312Z,80.17
2018-04-15T17:01:59.010Z,74.83
2018-04-15T17:04:27.225Z,69.27
2018-04-15T17:06:54.864Z,76.30
2018-04-15T17:09:23.707Z,70.50
2018-04-15T17:11:51.571Z,67.13
2018-04-15T17:14:19.434Z,67.27
2018-04-15T17:16:47.289Z,58.73
2018-04-15T17:19:15.003Z,62.43
2018-04-15T17:21:42.783Z,67.47
2018-04-15T17:24:10.493Z,66.27
2018-04-15T17:26:38.905Z,59.30
2018-04-15T17:29:06.554Z,61.17
2018-04-15T17:31:35.281Z,62.87
2018-04-15T17:34:03.145Z,65.57
2018-04-15T17:36:31.029Z,69.00
2018-04-15T17:38:59.877Z,119.20
2018-04-15T17:41:27.662Z,85.63
2018-04-15T17:43:55.314Z,84.13
2018-04-15T17:46:23.006Z,85.60
2018-04-15T17:48:50.653Z,82.03
2018-04-15T17:51:18.313Z,127.57
2018-04-15T17:53:46.013Z,87.37
2018-04-15T17:56:13.839Z,88.20
2018-04-15T17:58:41.493Z,75.80
2018-04-15T18:01:09.216Z,84.53
2018-04-15T18:03:37.636Z,195.93
2018-04-15T18:06:05.511Z,89.40
2018-04-15T18:08:33.459Z,78.27
2018-04-15T18:11:01.117Z,90.20
2018-04-15T18:13:28.768Z,312.53
2018-04-15T18:15:58.411Z,141.93
2018-04-15T18:23:46.540Z,79.07
2018-04-15T18:26:15.470Z,81.23
2018-04-15T18:28:43.413Z,84.50
2018-04-15T18:31:11.206Z,87.10
2018-04-15T18:33:39.043Z,93.67
2018-04-15T18:36:06.681Z,92.00
2018-04-15T18:38:35.093Z,81.30
2018-04-15T18:41:03.085Z,96.97
2018-04-15T18:43:30.743Z,96.70
2018-04-15T18:45:58.614Z,85.47
2018-04-15T18:48:26.321Z,92.33
2018-04-15T18:50:54.761Z,85.77
2018-04-15T18:53:22.401Z,86.87
2018-04-15T18:55:50.286Z,87.03
2018-04-15T18:58:17.996Z,87.53
2018-04-15T19:00:47.044Z,81.50
2018-04-15T19:03:14.802Z,77.50
2018-04-15T19:05:42.446Z,88.20
2018-04-15T19:08:10.089Z,239.70
2018-04-15T19:10:38.911Z,108.73
2018-04-15T19:13:06.788Z,83.80
2018-04-15T19:15:34.448Z,82.33
2018-04-15T19:18:02.141Z,82.63
2018-04-15T19:20:29.790Z,82.07
2018-04-15T19:22:57.639Z,95.23
2018-04-15T19:25:25.477Z,83.97
2018-04-15T19:27:53.125Z,73.73
2018-04-15T19:30:20.768Z,83.23
2018-04-15T19:32:49.384Z,80.60
2018-04-15T19:35:17.033Z,83.80
2018-04-15T19:37:44.672Z,80.47
2018-04-15T19:40:13.502Z,82.67
2018-04-15T19:42:41.283Z,78.17
2018-04-15T19:45:08.956Z,69.20
2018-04-15T19:47:37.057Z,73.63
2018-04-15T19:50:05.491Z,64.70
2018-04-15T19:52:33.132Z,68.03
2018-04-15T19:55:00.985Z,62.27
2018-04-15T19:57:29.585Z,57.03
2018-04-15T19:59:57.274Z,55.20
2018-04-15T20:02:24.973Z,47.80
2018-04-15T20:04:53.517Z,47.27
2018-04-15T20:07:21.381Z,47.13
2018-04-15T20:09:49.339Z,36.80
2018-04-15T20:12:16.989Z,29.00
2018-04-15T20:14:44.697Z,27.53
2018-04-15T20:17:12.400Z,27.43
2018-04-15T20:19:40.245Z,22.23
2018-04-15T20:22:08.692Z,21.10
2018-04-15T20:24:36.532Z,23.50
2018-04-15T20:27:04.357Z,22.07
2018-04-15T20:29:33.002Z,22.33
2018-04-15T20:32:00.949Z,26.07
2018-04-15T20:34:28.634Z,20.83
2018-04-15T20:36:56.294Z,23.43
2018-04-15T20:39:24.351Z,21.90
2018-04-15T20:41:52.009Z,21.83
2018-04-15T20:44:19.648Z,19.90
2018-04-15T20:46:47.333Z,17.97
2018-04-15T20:49:14.972Z,18.80
2018-04-15T20:51:42.774Z,21.00
2018-04-15T20:54:10.474Z,20.67
2018-04-15T20:56:38.962Z,18.63
2018-04-15T20:59:07.499Z,21.27
2018-04-15T21:01:35.553Z,16.87
2018-04-15T21:04:03.201Z,20.77
2018-04-15T21:06:30.858Z,20.23
2018-04-15T21:08:58.565Z,19.63
2018-04-15T21:11:26.204Z,15.70
2018-04-15T21:13:53.845Z,17.00
2018-04-15T21:16:21.534Z,13.83
2018-04-15T21:18:49.177Z,23.37
2018-04-15T21:21:16.817Z,22.37
2018-04-15T21:23:45.282Z,24.03
2018-04-15T21:26:13.002Z,25.57
2018-04-15T21:28:40.644Z,79.23
2018-04-15T21:31:08.947Z,164.77
2018-04-15T21:33:36.810Z,224.03
2018-04-15T21:36:04.476Z,224.40
2018-04-15T21:38:32.321Z,89.33
2018-04-15T21:41:00.104Z,17.23
2018-04-15T21:43:27.767Z,26.23
2018-04-15T21:45:55.631Z,44.40
2018-04-15T21:48:23.396Z,49.17
2018-04-15T21:50:51.045Z,49.30
2018-04-15T21:53:18.905Z,31.37
2018-04-15T21:55:46.589Z,29.57
2018-04-15T21:58:14.391Z,28.37
2018-04-15T22:00:42.945Z,19.53
2018-04-15T22:03:10.605Z,28.40
2018-04-15T22:05:38.460Z,17.70
2018-04-15T22:08:06.431Z,24.30
2018-04-15T22:10:34.293Z,17.60
2018-04-15T22:13:06.049Z,12.33
2018-04-15T22:15:33.923Z,22.47
2018-04-15T22:18:01.564Z,18.50
2018-04-15T22:20:29.343Z,15.57
2018-04-15T22:22:57.050Z,11.00
2018-04-15T22:25:25.478Z,14.03
2018-04-15T22:27:53.161Z,11.27
2018-04-15T22:30:20.915Z,11.77
2018-04-15T22:32:48.549Z,13.03
2018-04-15T22:35:16.344Z,13.20
2018-04-15T22:37:44.393Z,13.43
2018-04-15T22:40:12.029Z,10.03
2018-04-15T22:42:40.434Z,13.97
2018-04-15T22:45:08.113Z,12.77
2018-04-15T22:47:35.780Z,14.13
2018-04-15T22:50:09.462Z,12.57
2018-04-15T22:52:37.244Z,13.30
2018-04-15T22:55:05.107Z,13.33
2018-04-15T22:57:32.820Z,14.50
2018-04-15T23:00:01.225Z,21.97
2018-04-15T23:02:29.013Z,13.87
2018-04-15T23:04:57.082Z,13.50
2018-04-15T23:07:24.958Z,13.27
2018-04-15T23:09:52.617Z,12.43
2018-04-15T23:12:20.585Z,13.00
2018-04-15T23:14:48.450Z,14.00
2018-04-15T23:17:16.093Z,16.10
2018-04-15T23:19:43.977Z,15.97
2018-04-15T23:22:11.633Z,13.03
2018-04-15T23:24:39.265Z,17.87
2018-04-15T23:27:07.720Z,13.40
2018-04-15T23:29:35.357Z,12.40
2018-04-15T23:32:03.009Z,15.47
2018-04-15T23:34:30.689Z,12.43
2018-04-15T23:36:58.535Z,14.30
2018-04-15T23:39:26.202Z,17.33
2018-04-15T23:41:55.765Z,13.87
2018-04-15T23:44:24.177Z,12.87
2018-04-15T23:46:51.953Z,12.47
2018-04-15T23:49:19.654Z,15.80
2018-04-15T23:51:48.061Z,11.20
2018-04-15T23:54:15.693Z,11.63
2018-04-15T23:56:50.073Z,10.80
2018-04-15T23:59:17.724Z,14.23
